地図

経路データ

SID SEASON NUMBER BASIN SUBBASIN NAME ISO_TIME NATURE LAT LON WMO_WIND WMO_PRES WMO_AGENCY TRACK_TYPE DIST2LAND LANDFALL IFLAG USA_AGENCY USA_ATCF_ID USA_LAT USA_LON USA_RECORD USA_STATUS USA_WIND USA_PRES USA_SSHS USA_R34_NE USA_R34_SE USA_R34_SW USA_R34_NW USA_R50_NE USA_R50_SE USA_R50_SW USA_R50_NW USA_R64_NE USA_R64_SE USA_R64_SW USA_R64_NW USA_POCI USA_ROCI USA_RMW USA_EYE TOKYO_LAT TOKYO_LON TOKYO_GRADE TOKYO_WIND TOKYO_PRES TOKYO_R50_DIR TOKYO_R50_LONG TOKYO_R50_SHORT TOKYO_R30_DIR TOKYO_R30_LONG TOKYO_R30_SHORT TOKYO_LAND CMA_LAT CMA_LON CMA_CAT CMA_WIND CMA_PRES HKO_LAT HKO_LON HKO_CAT HKO_WIND HKO_PRES NEWDELHI_LAT NEWDELHI_LON NEWDELHI_GRADE NEWDELHI_WIND NEWDELHI_PRES NEWDELHI_CI NEWDELHI_DP NEWDELHI_POCI REUNION_LAT REUNION_LON REUNION_TYPE REUNION_WIND REUNION_PRES REUNION_TNUM REUNION_CI REUNION_RMW REUNION_R34_NE REUNION_R34_SE REUNION_R34_SW REUNION_R34_NW REUNION_R50_NE REUNION_R50_SE REUNION_R50_SW REUNION_R50_NW REUNION_R64_NE REUNION_R64_SE REUNION_R64_SW REUNION_R64_NW BOM_LAT BOM_LON BOM_TYPE BOM_WIND BOM_PRES BOM_TNUM BOM_CI BOM_RMW BOM_R34_NE BOM_R34_SE BOM_R34_SW BOM_R34_NW BOM_R50_NE BOM_R50_SE BOM_R50_SW BOM_R50_NW BOM_R64_NE BOM_R64_SE BOM_R64_SW BOM_R64_NW BOM_ROCI BOM_POCI BOM_EYE BOM_POS_METHOD BOM_PRES_METHOD NADI_LAT NADI_LON NADI_CAT NADI_WIND NADI_PRES WELLINGTON_LAT WELLINGTON_LON WELLINGTON_WIND WELLINGTON_PRES DS824_LAT DS824_LON DS824_STAGE DS824_WIND DS824_PRES TD9636_LAT TD9636_LON TD9636_STAGE TD9636_WIND TD9636_PRES TD9635_LAT TD9635_LON TD9635_WIND TD9635_PRES TD9635_ROCI NEUMANN_LAT NEUMANN_LON NEUMANN_CLASS NEUMANN_WIND NEUMANN_PRES MLC_LAT MLC_LON MLC_CLASS MLC_WIND MLC_PRES USA_GUST BOM_GUST BOM_GUST_PER REUNION_GUST REUNION_GUST_PER USA_SEAHGT USA_SEARAD_NE USA_SEARAD_SE USA_SEARAD_SW USA_SEARAD_NW STORM_SPEED STORM_DIR
1971308N09163 1971 144 WP MM NOT_NAMED 1971-11-04 00:00:00 TS 9.00000 163.000 main 1835 1818 __O___________ -1 9.00000 163.000 0 19 1006 21 299
1971308N09163 1971 144 WP MM NOT_NAMED 1971-11-04 03:00:00 TS 9.50817 162.083 main 1819 1806 __P___________ -1 9.50817 162.083 0 19 1006 20 301
1971308N09163 1971 144 WP MM NOT_NAMED 1971-11-04 06:00:00 TS 10.0000 161.300 main 1812 1808 __O___________ -1 10.0000 161.300 0 19 1006 16 306
1971308N09163 1971 144 WP MM NOT_NAMED 1971-11-04 09:00:00 TS 10.4522 160.752 main 1828 1822 __P___________ -1 10.4522 160.752 0 21 1005 12 312
1971308N09163 1971 144 WP MM NOT_NAMED 1971-11-04 12:00:00 TS 10.8000 160.400 main 1833 1831 __O___________ -1 10.8000 160.400 1 23 1004 8 313
1971308N09163 1971 144 WP MM NOT_NAMED 1971-11-04 15:00:00 TS 10.9874 160.162 main 1840 1835 __P___________ -1 10.9874 160.162 1 23 1004 5 308
1971308N09163 1971 144 WP MM NOT_NAMED 1971-11-04 18:00:00 TS 11.1000 160.000 main 1839 1833 __O___________ -1 11.1000 160.000 1 23 1004 4 306
1971308N09163 1971 144 WP MM NOT_NAMED 1971-11-04 21:00:00 TS 11.2500 159.792 main 1847 1841 __P___________ -1 11.2500 159.792 1 26 1004 5 308
1971308N09163 1971 144 WP MM NOT_NAMED 1971-11-05 00:00:00 TS 11.4000 159.600 main 1845 1840 __O___________ -1 11.4000 159.600 1 29 1004 4 311
1971308N09163 1971 144 WP MM NOT_NAMED 1971-11-05 03:00:00 TS 11.5274 159.472 main 1850 1850 __P___________ -1 11.5274 159.472 1 29 1004 4 316
1971308N09163 1971 144 WP MM NOT_NAMED 1971-11-05 06:00:00 TS 11.7000 159.300 main 1859 1859 __O___________ -1 11.7000 159.300 1 29 1004 7 313
1971308N09163 1971 144 WP MM NOT_NAMED 1971-11-05 09:00:00 TS 11.9700 158.980 main 1874 1869 __P___________ -1 11.9700 158.980 1 29 1004 9 311
1971308N09163 1971 144 WP MM NOT_NAMED 1971-11-05 12:00:00 TS 12.3000 158.600 main 1884 1884 __O___________ -1 12.3000 158.600 1 29 1004 10 312
1971308N09163 1971 144 WP MM NOT_NAMED 1971-11-05 15:00:00 TS 12.6275 158.227 main 1894 1894 __P___________ -1 12.6275 158.227 1 26 1004 10 316
1971308N09163 1971 144 WP MM NOT_NAMED 1971-11-05 18:00:00 TS 13.0000 157.900 main 1921 1921 __O___________ -1 13.0000 157.900 1 23 1004 10 326
1971308N09163 1971 144 WP MM NOT_NAMED 1971-11-05 21:00:00 TS 13.4725 157.633 main 1959 1959 __P___________ -1 13.4725 157.633 1 23 1004 10 337
1971308N09163 1971 144 WP MM NOT_NAMED 1971-11-06 00:00:00 TS 13.9000 157.500 main 1997 1997 __O___________ -1 13.9000 157.500 1 23 1004 7 353
1971308N09163 1971 144 WP MM NOT_NAMED 1971-11-06 03:00:00 TS 14.1450 157.547 main 2018 2018 __P___________ -1 14.1450 157.547 1 21 1003 4 26
1971308N09163 1971 144 WP MM NOT_NAMED 1971-11-06 06:00:00 TS 14.3000 157.700 main 2046 2046 __O___________ -1 14.3000 157.700 0 19 1002 4 45
1971308N09163 1971 144 WP MM NOT_NAMED 1971-11-06 09:00:00 TS 14.4425 157.850 main 2065 2065 __P___________ -1 14.4425 157.850 0 19 1002 4 44
1971308N09163 1971 144 WP MM NOT_NAMED 1971-11-06 12:00:00 TS 14.6000 158.000 main 2090 2090 __O___________ -1 14.6000 158.000 0 19 1002 5 37
1971308N09163 1971 144 WP MM NOT_NAMED 1971-11-06 15:00:00 TS 14.8050 158.130 main 2115 2115 __P___________ -1 14.8050 158.130 0 19 1002 5 21
1971308N09163 1971 144 WP MM NOT_NAMED 1971-11-06 18:00:00 TS 15.1000 158.200 main 2150 2150 __O___________ -1 15.1000 158.200 0 19 1002 7 4
1971308N09163 1971 144 WP MM NOT_NAMED 1971-11-06 21:00:00 TS 15.4975 158.187 main 2191 2191 __P___________ -1 15.4975 158.187 0 19 1002 9 354
1971308N09163 1971 144 WP MM NOT_NAMED 1971-11-07 00:00:00 TS 16.0000 158.100 main 2239 2239 __O___________ -1 16.0000 158.100 0 19 1002 11 350
1971308N09163 1971 144 WP MM NOT_NAMED 1971-11-07 03:00:00 TS 16.5700 157.980 main 2298 2298 __P___________ -1 16.5700 157.980 0 19 1003 12 346
1971308N09163 1971 144 WP MM NOT_NAMED 1971-11-07 06:00:00 TS 17.2000 157.800 main 2354 2354 __O___________ -1 17.2000 157.800 0 19 1004 14 342
1971308N09163 1971 144 WP MM NOT_NAMED 1971-11-07 09:00:00 TS 17.8576 157.543 main 2418 2418 __P___________ -1 17.8576 157.543 0 19 1004 14 340
1971308N09163 1971 144 WP MM NOT_NAMED 1971-11-07 12:00:00 TS 18.5000 157.300 main 2475 2448 __O___________ -1 18.5000 157.300 0 19 1004 12 343
1971308N09163 1971 144 WP MM NOT_NAMED 1971-11-07 15:00:00 TS 19.0424 157.170 main 2448 2389 __P___________ -1 19.0424 157.170 0 19 1004 11 350
1971308N09163 1971 144 WP MM NOT_NAMED 1971-11-07 18:00:00 TS 19.6000 157.100 main 2389 2331 __O___________ -1 19.6000 157.100 0 19 1005 13 354
1971308N09163 1971 144 WP MM NOT_NAMED 1971-11-07 21:00:00 TS 20.2850 157.035 main 2323 2264 __P___________ -1 20.2850 157.035 0 19 1005 14 356
1971308N09163 1971 144 WP MM NOT_NAMED 1971-11-08 00:00:00 TS 21.0000 157.000 main 2264 2215 __O___________ -1 21.0000 157.000 0 19 1006 14 359
1971308N09163 1971 144 WP MM NOT_NAMED 1971-11-08 03:00:00 TS 21.6575 156.992 main 2207 2158 __P___________ -1 21.6575 156.992 0 19 1007 13 1
1971308N09163 1971 144 WP MM NOT_NAMED 1971-11-08 06:00:00 TS 22.3000 157.000 main 2158 2109 __O___________ -1 22.3000 157.000 0 19 1008 13 0
1971308N09163 1971 144 WP MM NOT_NAMED 1971-11-08 09:00:00 TS 22.9475 157.003 main 2109 2053 __P___________ -1 22.9475 157.003 0 19 1009 13 1
1971308N09163 1971 144 WP MM NOT_NAMED 1971-11-08 12:00:00 TS 23.6000 157.000 main 2053 __O___________ -1 23.6000 157.000 0 19 1010 13 360

デジタル台風データ・検索

IBTrACS Databaseについて

本データベースは、米国NOAAが公開する1842年以降の世界の熱帯低気圧のベストトラックデータアーカイブInternational Best Track Archive for Climate Stewardship (IBTrACS)を、ウェブで閲覧しやすい形式に変換したものです。

最終更新日:2021-12-03